Flugplatz Hodenhagen

Für EDVH sind keine METAR/TAF Berichte vorhanden.
Es werden die Flugwettermeldungen vom Flugplatz Celle Airport in 33 km Entfernung angezeigt.

Bericht für ETHC

vom 23.08. um 12:20 UTC

Wind 3 kt aus 180°

Sichtweite 10 km oder mehr

Temperatur 27.0°C

Taupunkt 7.0°C

Luftfeuchtigkeit 28%

Luftdruck 1025 hPa

ETHC 231220Z AUTO 18003KT 9999 // ////// 27/07 Q1025 ///

Prognose für ETHC

vom 23.08. um 00:00 UTC

Zwischen 00:00 UTC und 00:00 UTC

Wind 5 kt aus 250°

Sichtweite 10 km oder mehr

keine signifikanten Wettererscheinungen

aufgelockert bewölkt in 30000 ft

TAF COR ETHC 230950Z 2308/2317 25005KT 9999 NSW SCT300 CANCEL 1020
Impressum